Time;durP1;ratioP1;P1;durP2;ratioP2;P2;SDS_P1;SDS_P2;PMS_P1;PMS_P2;Temp;Humidity;BMP_temperature;BMP_pressure;BME280_temperature;BME280_humidity;BME280_pressure;Samples;Min_cycle;Max_cycle;Signal;HPM_P1;HPM_P2
2021/01/06 00:01:50;;;;;;;7.40;2.78;;;;;;;24.38;43.14;97722.94;4991823;28;20255;-57
2021/01/06 00:04:16;;;;;;;5.93;1.98;;;;;;;24.47;43.63;97726.34;4992047;28;20309;-57
2021/01/06 00:06:43;;;;;;;5.47;1.63;;;;;;;24.43;43.49;97722.38;4992267;28;20691;-58
2021/01/06 00:09:09;;;;;;;8.23;2.22;;;;;;;24.35;42.84;97729.50;4992112;28;20308;-55
2021/01/06 00:11:38;;;;;;;4.63;1.65;;;;;;;24.41;43.58;97727.09;4992282;28;20576;-56
2021/01/06 00:14:06;;;;;;;5.53;2.03;;;;;;;24.34;43.21;97727.84;4993568;28;20229;-58
2021/01/06 00:16:32;;;;;;;7.47;2.00;;;;;;;24.31;43.98;97728.22;4991469;28;20209;-56
2021/01/06 00:18:59;;;;;;;9.57;2.42;;;;;;;24.38;43.24;97729.13;4992394;28;20653;-55
2021/01/06 00:21:25;;;;;;;5.47;1.77;;;;;;;24.29;43.85;97719.59;4991433;28;20655;-58
2021/01/06 00:23:51;;;;;;;4.10;1.70;;;;;;;24.28;44.00;97717.09;4992144;28;20241;-58
2021/01/06 00:26:17;;;;;;;6.60;1.90;;;;;;;24.33;43.69;97725.38;4993013;28;20205;-59
2021/01/06 00:28:43;;;;;;;5.85;2.42;;;;;;;24.27;42.60;97718.94;4993018;28;20232;-59
2021/01/06 00:31:10;;;;;;;7.25;1.70;;;;;;;24.25;44.00;97721.00;4991183;28;20568;-59
2021/01/06 00:33:37;;;;;;;3.25;1.70;;;;;;;24.29;43.63;97718.75;4991253;28;20316;-56
2021/01/06 00:36:08;;;;;;;5.20;2.15;;;;;;;24.24;42.42;97710.50;4992434;28;20201;-58
2021/01/06 00:38:37;;;;;;;4.07;1.95;;;;;;;24.21;43.37;97722.38;4993106;28;20222;-59
2021/01/06 00:41:03;;;;;;;6.65;1.70;;;;;;;24.18;43.01;97718.25;4992622;28;20728;-59
2021/01/06 00:43:31;;;;;;;4.75;2.00;;;;;;;24.11;43.57;97716.50;4991544;28;20204;-58
2021/01/06 00:45:57;;;;;;;7.45;1.92;;;;;;;24.16;43.80;97719.44;4992340;28;20232;-53
2021/01/06 00:48:23;;;;;;;8.00;1.50;;;;;;;24.12;43.98;97719.00;4992711;28;20320;-57
2021/01/06 00:50:49;;;;;;;5.95;2.15;;;;;;;24.11;43.09;97719.19;4991458;28;20304;-58
2021/01/06 00:53:21;;;;;;;5.75;1.60;;;;;;;24.10;44.16;97725.53;4992031;28;20232;-56
2021/01/06 00:55:48;;;;;;;5.13;1.98;;;;;;;24.10;43.75;97717.50;4993442;28;20271;-55
2021/01/06 00:58:14;;;;;;;4.93;2.10;;;;;;;24.06;43.19;97724.25;4992040;28;20271;-54
2021/01/06 01:00:41;;;;;;;6.53;1.88;;;;;;;24.00;43.55;97712.50;4991441;28;20295;-56
2021/01/06 01:03:07;;;;;;;7.95;2.08;;;;;;;24.04;44.21;97720.97;4991271;28;20523;-61
2021/01/06 01:05:35;;;;;;;3.92;1.92;;;;;;;24.00;43.78;97710.66;4991099;28;20212;-54
2021/01/06 01:08:01;;;;;;;5.68;1.98;;;;;;;23.95;43.15;97729.09;4991509;28;20720;-57
2021/01/06 01:10:33;;;;;;;5.95;1.88;;;;;;;24.00;44.38;97721.34;4992387;28;20576;-56
2021/01/06 01:13:00;;;;;;;4.43;1.90;;;;;;;23.96;44.19;97725.38;4992435;28;20316;-56
2021/01/06 01:15:28;;;;;;;7.15;2.40;;;;;;;23.90;43.88;97723.47;4992442;28;20201;-55
2021/01/06 01:17:54;;;;;;;5.38;1.52;;;;;;;23.95;44.28;97722.91;4990832;28;20213;-57
2021/01/06 01:20:21;;;;;;;4.13;1.98;;;;;;;23.99;43.86;97726.84;4990732;28;20219;-54
2021/01/06 01:22:49;;;;;;;8.93;2.00;;;;;;;23.86;43.56;97735.53;4991522;28;20204;-59
2021/01/06 01:25:18;;;;;;;3.45;1.67;;;;;;;23.90;43.28;97726.16;4991698;28;20201;-53
2021/01/06 01:27:45;;;;;;;4.68;1.80;;;;;;;23.86;43.45;97735.53;4991455;28;20209;-56
2021/01/06 01:30:16;;;;;;;3.67;2.00;;;;;;;23.79;43.80;97742.59;4990654;28;20231;-54
2021/01/06 01:32:43;;;;;;;3.78;1.65;;;;;;;23.77;43.71;97737.44;4992133;28;20320;-58
2021/01/06 01:35:10;;;;;;;2.85;1.63;;;;;;;23.87;43.58;97737.19;4991529;28;20209;-56
2021/01/06 01:37:37;;;;;;;3.67;1.73;;;;;;;23.79;43.93;97740.75;4990766;28;20695;-53
2021/01/06 01:40:04;;;;;;;3.38;1.95;;;;;;;23.75;43.23;97742.16;4990114;28;20557;-58
2021/01/06 01:42:30;;;;;;;4.47;2.10;;;;;;;23.76;43.50;97740.31;4989754;28;20304;-57
2021/01/06 01:44:59;;;;;;;2.90;1.65;;;;;;;23.68;43.24;97743.06;4990196;28;20301;-58
2021/01/06 01:47:37;;;;;;;4.50;2.03;;;;;;;23.75;43.33;97738.66;4991371;28;20208;-58
2021/01/06 01:50:05;;;;;;;5.85;1.73;;;;;;;23.76;43.84;97740.31;4992036;28;20231;-58
2021/01/06 01:52:36;;;;;;;2.58;1.58;;;;;;;23.75;44.22;97739.47;4991671;28;20209;-58
2021/01/06 01:55:05;;;;;;;4.25;1.90;;;;;;;23.67;43.90;97741.44;4991043;28;20322;-56
2021/01/06 01:57:35;;;;;;;4.00;1.73;;;;;;;23.61;44.25;97743.78;4991216;28;20209;-58
2021/01/06 02:00:08;;;;;;;6.50;1.83;;;;;;;23.71;43.32;97740.84;4991729;28;20233;-57
2021/01/06 02:02:45;;;;;;;4.88;2.05;;;;;;;23.71;43.45;97743.53;4991656;28;20197;-55
2021/01/06 02:05:14;;;;;;;7.07;2.35;;;;;;;23.68;44.20;97735.91;4991480;28;20205;-53
2021/01/06 02:07:50;;;;;;;4.32;1.63;;;;;;;23.79;44.23;97739.94;4990298;28;20209;-57
2021/01/06 02:10:20;;;;;;;4.47;1.90;;;;;;;23.70;43.34;97733.88;4991374;28;20276;-57
2021/01/06 02:12:50;;;;;;;6.03;1.67;;;;;;;23.65;43.37;97726.41;4990511;28;20205;-59
2021/01/06 02:15:28;;;;;;;3.10;1.58;;;;;;;23.73;43.29;97732.66;4990428;28;20251;-55
2021/01/06 02:17:54;;;;;;;4.93;2.33;;;;;;;23.71;43.83;97721.34;4991484;28;20295;-57
2021/01/06 02:20:22;;;;;;;2.78;1.60;;;;;;;23.60;43.55;97731.50;4989211;28;20235;-56
2021/01/06 02:22:50;;;;;;;2.97;1.60;;;;;;;23.67;44.57;97730.75;4990392;28;20609;-55
2021/01/06 02:25:18;;;;;;;3.03;1.60;;;;;;;23.68;44.06;97727.06;4990144;28;20208;-56
2021/01/06 02:27:44;;;;;;;2.72;1.90;;;;;;;23.60;43.79;97725.34;4991276;28;20259;-58
2021/01/06 02:30:13;;;;;;;3.47;1.50;;;;;;;23.62;43.73;97718.78;4989662;28;20221;-57
2021/01/06 02:32:39;;;;;;;2.53;1.45;;;;;;;23.65;43.72;97715.75;4989833;28;20223;-56
2021/01/06 02:35:07;;;;;;;3.72;1.70;;;;;;;23.53;43.63;97711.06;4989917;28;20229;-57
2021/01/06 02:37:33;;;;;;;4.00;1.98;;;;;;;23.53;43.58;97725.25;4990976;28;20205;-55
2021/01/06 02:40:00;;;;;;;2.42;1.40;;;;;;;23.59;44.02;97716.47;4990601;28;20232;-57
2021/01/06 02:42:27;;;;;;;4.15;1.73;;;;;;;23.58;43.16;97720.19;4988957;28;20205;-59
2021/01/06 02:44:53;;;;;;;4.28;1.90;;;;;;;23.54;43.33;97726.88;4989834;28;20228;-59
2021/01/06 02:47:20;;;;;;;3.35;1.60;;;;;;;23.57;44.50;97715.84;4988660;28;20213;-58
2021/01/06 02:49:46;;;;;;;5.72;1.73;;;;;;;23.52;43.85;97717.41;4988588;28;20235;-59
2021/01/06 02:52:17;;;;;;;5.93;2.00;;;;;;;23.42;43.86;97723.03;4989727;28;20212;-56
2021/01/06 02:54:46;;;;;;;3.60;1.63;;;;;;;23.42;42.81;97718.50;4990650;28;20225;-57
2021/01/06 02:57:15;;;;;;;3.15;1.60;;;;;;;23.41;43.08;97721.38;4990052;28;20267;-59
2021/01/06 02:59:43;;;;;;;3.00;1.73;;;;;;;23.38;43.89;97719.06;4988925;28;20291;-59
2021/01/06 03:02:12;;;;;;;3.00;1.48;;;;;;;23.36;44.99;97719.25;4988946;28;20205;-58
2021/01/06 03:04:42;;;;;;;2.90;1.58;;;;;;;23.50;44.67;97709.59;4990604;28;20205;-60
2021/01/06 03:07:11;;;;;;;2.75;1.50;;;;;;;23.60;44.24;97714.66;4990568;28;20209;-58
2021/01/06 03:09:39;;;;;;;2.17;1.40;;;;;;;23.54;44.16;97720.72;4990460;28;20227;-58
2021/01/06 03:12:09;;;;;;;4.68;2.00;;;;;;;23.63;44.23;97723.13;4988632;28;20202;-57
2021/01/06 03:14:38;;;;;;;7.75;1.77;;;;;;;23.71;43.74;97716.00;4990045;28;20636;-56
2021/01/06 03:17:06;;;;;;;3.15;1.65;;;;;;;23.64;43.46;97708.75;4990611;28;20205;-57
2021/01/06 03:19:36;;;;;;;3.42;1.48;;;;;;;23.60;43.61;97714.66;4989569;28;20597;-57
2021/01/06 03:22:07;;;;;;;3.67;1.77;;;;;;;23.69;44.47;97707.38;4990284;28;20205;-53
2021/01/06 03:24:38;;;;;;;4.70;1.58;;;;;;;23.56;43.86;97711.50;4993111;28;20257;-56
2021/01/06 03:27:06;;;;;;;6.85;2.30;;;;;;;23.53;43.51;97709.25;4993993;28;20210;-56
2021/01/06 03:29:35;;;;;;;8.30;1.80;;;;;;;23.65;44.71;97706.94;4993726;28;20648;-55
2021/01/06 03:32:09;;;;;;;2.92;1.60;;;;;;;23.65;44.01;97702.41;4993626;28;20253;-55
2021/01/06 03:34:41;;;;;;;9.82;2.45;;;;;;;23.60;44.16;97698.66;4993766;28;20673;-54
2021/01/06 03:37:12;;;;;;;4.53;1.27;;;;;;;23.54;44.42;97702.88;4993884;28;20212;-55
2021/01/06 03:39:45;;;;;;;4.85;1.60;;;;;;;23.63;44.08;97699.09;4992907;28;20229;-56
2021/01/06 03:42:11;;;;;;;3.30;1.60;;;;;;;23.48;43.92;97700.13;4994282;28;20209;-53
2021/01/06 03:44:37;;;;;;;3.83;1.63;;;;;;;23.53;44.57;97703.06;4992464;28;20198;-54
2021/01/06 03:47:12;;;;;;;2.47;1.55;;;;;;;23.64;44.09;97698.06;4993085;28;20526;-57
2021/01/06 03:49:47;;;;;;;4.97;1.63;;;;;;;23.58;43.09;97700.66;4993096;28;20350;-55
2021/01/06 03:52:19;;;;;;;4.57;1.50;;;;;;;23.50;44.40;97696.25;4994247;28;20213;-57
2021/01/06 03:54:51;;;;;;;8.23;1.70;;;;;;;23.58;44.29;97693.50;4992437;28;20233;-55
2021/01/06 03:57:19;;;;;;;5.25;1.40;;;;;;;23.48;44.55;97695.59;4994054;28;20206;-58
2021/01/06 03:59:49;;;;;;;4.25;1.60;;;;;;;23.51;44.41;97699.75;4992342;28;20302;-56
2021/01/06 04:02:21;;;;;;;2.88;1.42;;;;;;;23.60;44.41;97699.47;4993360;28;20285;-53
2021/01/06 04:04:50;;;;;;;3.35;1.40;;;;;;;23.60;43.40;97698.66;4993482;28;20206;-55
2021/01/06 04:07:22;;;;;;;28.00;2.10;;;;;;;23.54;44.01;97694.03;4992989;28;20210;-55
2021/01/06 04:09:53;;;;;;;3.40;1.40;;;;;;;23.61;43.57;97694.94;4992487;28;20291;-52
2021/01/06 04:12:20;;;;;;;2.88;1.33;;;;;;;23.61;43.98;97701.09;4993396;28;20208;-56
2021/01/06 04:14:47;;;;;;;2.95;1.30;;;;;;;23.56;43.41;97698.16;4992051;28;20229;-55
2021/01/06 04:17:18;;;;;;;3.65;1.42;;;;;;;23.63;44.16;97692.91;4992159;28;20209;-56
2021/01/06 04:19:47;;;;;;;3.08;1.40;;;;;;;23.59;43.27;97692.47;4992318;28;20225;-55
2021/01/06 04:22:15;;;;;;;3.22;1.98;;;;;;;23.56;43.80;97692.84;4991860;28;20769;-58
2021/01/06 04:24:41;;;;;;;4.05;1.42;;;;;;;23.56;44.33;97695.50;4991959;28;20201;-57
2021/01/06 04:27:07;;;;;;;2.72;1.40;;;;;;;23.66;43.44;97689.88;4993072;28;20227;-56
2021/01/06 04:29:34;;;;;;;2.95;1.40;;;;;;;23.57;43.84;97693.69;4992779;28;20604;-54
2021/01/06 04:32:00;;;;;;;3.30;1.40;;;;;;;23.50;44.23;97692.75;4991768;28;20282;-55
2021/01/06 04:34:26;;;;;;;2.90;1.50;;;;;;;23.41;43.78;97694.69;4991841;28;20225;-52
2021/01/06 04:36:53;;;;;;;2.33;1.13;;;;;;;23.46;43.71;97689.63;4992406;28;20308;-58
2021/01/06 04:39:19;;;;;;;5.70;1.75;;;;;;;23.58;43.40;97692.66;4991138;28;20229;-57
2021/01/06 04:41:55;;;;;;;5.53;1.58;;;;;;;23.74;43.43;97691.63;4991977;28;20266;-56
2021/01/06 04:44:54;;;;;;;3.38;1.52;;;;;;;23.77;43.20;97693.94;4992616;28;20208;-54
2021/01/06 04:47:42;;;;;;;3.80;1.45;;;;;;;23.84;43.44;97692.19;4970041;28;20219;-53
2021/01/06 04:50:31;;;;;;;6.40;1.75;;;;;;;23.89;42.75;97691.63;4992390;28;20677;-58
2021/01/06 04:53:04;;;;;;;2.53;1.40;;;;;;;24.00;43.74;97694.63;4992105;28;20209;-57
2021/01/06 04:55:43;;;;;;;4.10;1.65;;;;;;;24.01;42.78;97690.97;4992486;28;20216;-57
2021/01/06 04:58:24;;;;;;;2.20;1.20;;;;;;;24.03;42.93;97698.75;4991595;28;20219;-58
2021/01/06 05:01:05;;;;;;;4.55;1.42;;;;;;;24.04;43.27;97691.59;4992120;28;20211;-58
2021/01/06 05:03:57;;;;;;;3.38;1.30;;;;;;;24.06;42.67;97686.88;4991799;28;20219;-56
2021/01/06 05:06:45;;;;;;;4.03;1.90;;;;;;;24.12;42.82;97692.28;4991404;28;20213;-56
2021/01/06 05:09:17;;;;;;;2.17;1.20;;;;;;;24.18;43.02;97690.69;4991773;28;20304;-55
2021/01/06 05:11:53;;;;;;;2.92;1.48;;;;;;;24.17;42.98;97694.41;4990954;28;20297;-56
2021/01/06 05:14:22;;;;;;;4.18;1.33;;;;;;;24.14;42.32;97697.44;4990983;28;20588;-56
2021/01/06 05:16:51;;;;;;;5.38;1.40;;;;;;;24.18;42.87;97690.69;4990674;28;20271;-54
2021/01/06 05:19:22;;;;;;;2.75;1.20;;;;;;;24.16;42.55;97688.25;4990592;28;20290;-55
2021/01/06 05:21:49;;;;;;;3.17;1.38;;;;;;;24.27;42.81;97689.56;4992323;28;20210;-55
2021/01/06 05:24:22;;;;;;;2.00;1.17;;;;;;;24.20;42.18;97694.03;4991132;28;20236;-56
2021/01/06 05:26:52;;;;;;;4.25;1.30;;;;;;;24.19;42.98;97693.19;4991450;28;20281;-54
2021/01/06 05:29:24;;;;;;;5.05;1.30;;;;;;;24.20;43.13;97694.84;4992417;28;20235;-58
2021/01/06 05:31:50;;;;;;;5.15;1.30;;;;;;;24.23;43.07;97698.16;4991525;28;20209;-58
2021/01/06 05:34:16;;;;;;;4.65;1.70;;;;;;;24.16;43.20;97695.41;4989872;28;20276;-58
2021/01/06 05:36:44;;;;;;;3.08;1.65;;;;;;;24.14;42.54;97695.59;4990115;28;20725;-56
2021/01/06 05:39:20;;;;;;;4.22;1.30;;;;;;;24.20;42.66;97696.69;4990407;28;20260;-58
2021/01/06 05:41:49;;;;;;;1.83;1.10;;;;;;;24.22;42.77;97701.84;4989367;28;20209;-55
2021/01/06 05:44:15;;;;;;;2.30;1.20;;;;;;;24.18;42.19;97701.38;4990057;28;20197;-56
2021/01/06 05:46:45;;;;;;;2.80;1.40;;;;;;;24.15;42.10;97694.59;4990327;28;20201;-55
2021/01/06 05:49:21;;;;;;;2.92;1.33;;;;;;;24.16;42.99;97704.25;4990784;28;20241;-57
2021/01/06 05:51:53;;;;;;;2.38;1.30;;;;;;;24.16;42.61;97696.25;4991017;28;20208;-57
2021/01/06 05:54:22;;;;;;;3.63;1.20;;;;;;;24.20;42.20;97702.03;4991590;28;20225;-57
2021/01/06 05:57:03;;;;;;;5.28;1.48;;;;;;;24.17;42.90;97703.22;4989880;28;20259;-58
2021/01/06 05:59:40;;;;;;;2.03;1.10;;;;;;;24.20;42.02;97704.72;4991600;28;20676;-58
2021/01/06 06:02:21;;;;;;;3.28;1.42;;;;;;;24.24;42.86;97703.31;4990946;28;20216;-54
2021/01/06 06:05:07;;;;;;;2.00;1.00;;;;;;;24.31;42.46;97711.38;4991046;28;20231;-57
2021/01/06 06:07:37;;;;;;;4.88;1.10;;;;;;;24.28;41.96;97703.75;4990755;28;20229;-57
2021/01/06 06:10:20;;;;;;;1.73;1.23;;;;;;;24.28;41.88;97701.91;4989335;28;20711;-58
2021/01/06 06:13:02;;;;;;;2.28;1.02;;;;;;;24.25;42.27;97710.31;4990350;28;20292;-56
2021/01/06 06:15:43;;;;;;;2.67;1.05;;;;;;;24.29;42.89;97711.56;4990830;28;20306;-58
2021/01/06 06:18:25;;;;;;;2.60;1.45;;;;;;;24.29;42.32;97711.56;4990592;28;20305;-55
2021/01/06 06:20:57;;;;;;;2.63;1.30;;;;;;;24.25;42.40;97717.47;4991516;28;20209;-54
2021/01/06 06:23:48;;;;;;;2.38;1.20;;;;;;;24.26;42.95;97714.63;4991300;28;20215;-55
2021/01/06 06:26:20;;;;;;;1.90;1.10;;;;;;;24.29;43.01;97714.25;4987328;28;20228;-54
2021/01/06 06:28:54;;;;;;;1.63;1.30;;;;;;;24.25;42.43;97706.78;4991177;28;20244;-54
2021/01/06 06:31:26;;;;;;;2.67;1.45;;;;;;;24.22;41.72;97712.53;4992180;28;20360;-54
2021/01/06 06:33:57;;;;;;;2.70;1.20;;;;;;;24.19;43.03;97714.53;4989733;28;20279;-57
2021/01/06 06:36:27;;;;;;;3.15;1.30;;;;;;;24.26;42.18;97719.13;4990974;28;20316;-56
2021/01/06 06:38:54;;;;;;;1.33;0.93;;;;;;;24.18;42.62;97723.59;4989387;28;20592;-56
2021/01/06 06:41:31;;;;;;;1.60;1.00;;;;;;;24.17;42.41;97715.75;4990012;28;20342;-56
2021/01/06 06:44:21;;;;;;;1.92;1.23;;;;;;;24.17;42.21;97723.78;4990163;28;20204;-57
2021/01/06 06:46:57;;;;;;;1.48;1.08;;;;;;;24.12;42.11;97726.19;4990543;28;20213;-58
2021/01/06 06:49:35;;;;;;;3.90;1.10;;;;;;;24.12;43.01;97728.84;4990816;28;20742;-53
2021/01/06 06:52:10;;;;;;;3.72;1.13;;;;;;;24.19;42.61;97732.41;4990154;28;20223;-55
2021/01/06 06:54:47;;;;;;;2.17;1.23;;;;;;;24.14;42.32;97732.16;4990386;28;20555;-54
2021/01/06 06:57:23;;;;;;;2.05;1.23;;;;;;;24.16;42.91;97733.66;4990083;28;20216;-54
2021/01/06 07:00:08;;;;;;;6.53;1.23;;;;;;;24.14;42.24;97727.63;4993269;28;20592;-57
2021/01/06 07:02:43;;;;;;;3.13;1.45;;;;;;;24.17;43.08;97731.78;4995324;28;20689;-55
2021/01/06 07:05:18;;;;;;;2.35;1.00;;;;;;;24.14;42.46;97732.16;4994580;28;20205;-58
2021/01/06 07:07:49;;;;;;;2.35;1.40;;;;;;;24.15;42.73;97731.16;4995258;28;20690;-58
2021/01/06 07:10:19;;;;;;;3.58;1.00;;;;;;;24.17;42.72;97742.47;4995649;28;20229;-58
2021/01/06 07:12:47;;;;;;;2.22;1.08;;;;;;;24.09;43.14;97747.94;4993774;28;20212;-57
2021/01/06 07:15:32;;;;;;;1.60;1.00;;;;;;;24.08;42.99;97743.59;4993441;28;20233;-56
2021/01/06 07:17:59;;;;;;;2.03;1.10;;;;;;;24.09;42.36;97746.06;4994460;28;20615;-56
2021/01/06 07:20:37;;;;;;;3.78;1.10;;;;;;;24.15;42.21;97741.84;4992791;28;20289;-57
2021/01/06 07:23:12;;;;;;;4.43;1.65;;;;;;;24.08;41.56;97746.25;4994230;28;20205;-58
2021/01/06 07:25:41;;;;;;;1.33;1.10;;;;;;;24.09;41.95;97745.25;4993471;28;20201;-58
2021/01/06 07:28:14;;;;;;;1.40;1.20;;;;;;;24.08;41.59;97754.25;4994329;28;20189;-56
2021/01/06 07:30:44;;;;;;;2.50;1.30;;;;;;;24.16;41.10;97754.16;4994693;28;20292;-56
2021/01/06 07:33:21;;;;;;;2.70;1.40;;;;;;;24.09;41.55;97748.75;4993271;28;20267;-58
2021/01/06 07:35:47;;;;;;;3.58;1.20;;;;;;;24.05;41.45;97758.16;4993936;28;20411;-57
2021/01/06 07:38:15;;;;;;;2.63;1.20;;;;;;;23.97;41.25;97750.25;4992552;28;20620;-56
2021/01/06 07:40:44;;;;;;;6.72;1.20;;;;;;;24.00;41.64;97757.91;4992674;28;20205;-64
2021/01/06 07:43:19;;;;;;;1.33;0.85;;;;;;;24.01;42.11;97755.03;4994663;28;20212;-63
2021/01/06 07:45:52;;;;;;;1.88;1.20;;;;;;;24.11;41.22;97756.56;4993151;28;20684;-58
2021/01/06 07:48:29;;;;;;;4.13;1.20;;;;;;;24.05;40.78;97760.81;4994046;28;20225;-58
2021/01/06 07:51:06;;;;;;;2.33;1.30;;;;;;;24.23;41.25;97757.75;4994111;28;20295;-62
2021/01/06 07:53:39;;;;;;;1.83;1.13;;;;;;;24.34;41.44;97759.09;4993750;28;20205;-63
2021/01/06 07:56:16;;;;;;;2.30;1.10;;;;;;;24.54;41.08;97761.97;4992757;28;20444;-66
2021/01/06 07:58:50;;;;;;;3.53;1.10;;;;;;;24.64;40.87;97770.53;4992273;28;20887;-64
2021/01/06 08:01:30;;;;;;;4.60;1.30;;;;;;;24.53;41.08;97773.66;4994152;28;20313;-65
2021/01/06 08:04:00;;;;;;;29.77;1.63;;;;;;;24.68;41.33;97773.63;4994846;28;20272;-65
2021/01/06 08:06:53;;;;;;;1.60;1.20;;;;;;;24.69;41.42;97773.44;4993123;28;20233;-65
2021/01/06 08:09:35;;;;;;;6.00;1.33;;;;;;;24.72;40.86;97773.06;4993559;28;20603;-65
2021/01/06 08:12:11;;;;;;;11.20;2.50;;;;;;;24.72;41.27;97774.94;4992153;28;20225;-63
2021/01/06 08:14:38;;;;;;;3.22;1.20;;;;;;;24.64;40.96;97781.22;4992651;28;20256;-66
2021/01/06 08:17:14;;;;;;;3.25;1.48;;;;;;;24.61;40.56;97778.09;4991575;28;20632;-66
2021/01/06 08:19:46;;;;;;;8.80;1.55;;;;;;;24.64;40.36;97775.88;4993769;28;20316;-66
2021/01/06 08:22:21;;;;;;;4.07;1.50;;;;;;;24.58;40.04;97779.31;4993114;28;20202;-67
2021/01/06 08:24:51;;;;;;;7.43;1.40;;;;;;;24.71;39.48;97783.94;4992833;28;20543;-65
2021/01/06 08:27:27;;;;;;;9.93;1.20;;;;;;;24.56;39.66;97779.50;4992155;28;20405;-67
2021/01/06 08:30:16;;;;;;;5.05;1.55;;;;;;;24.59;37.67;97783.63;4993054;28;20261;-65
2021/01/06 08:32:42;;;;;;;13.48;2.13;;;;;;;24.52;40.53;97780.84;4992766;28;20348;-67
2021/01/06 08:35:17;;;;;;;4.00;1.48;;;;;;;24.53;37.67;97776.34;4991506;28;20324;-65
2021/01/06 08:37:45;;;;;;;8.98;1.75;;;;;;;24.56;39.05;97778.66;4991503;28;20684;-67
2021/01/06 08:40:27;;;;;;;4.30;1.20;;;;;;;24.57;37.77;97785.66;4992107;28;20275;-68
2021/01/06 08:42:53;;;;;;;3.75;1.40;;;;;;;24.48;39.50;97786.75;4993495;28;20233;-66
2021/01/06 08:45:24;;;;;;;2.58;1.10;;;;;;;24.43;39.69;97790.03;4992147;28;20212;-66
2021/01/06 08:47:50;;;;;;;4.47;1.58;;;;;;;24.35;37.89;97790.97;4990790;28;20205;-66
2021/01/06 08:50:33;;;;;;;5.20;1.50;;;;;;;24.26;39.08;97793.94;4992047;28;20705;-66
2021/01/06 08:53:01;;;;;;;5.03;1.30;;;;;;;24.24;40.70;97786.09;4992776;28;20209;-68
2021/01/06 08:55:31;;;;;;;4.60;1.50;;;;;;;24.36;41.86;97789.97;4993007;28;20229;-66
2021/01/06 08:57:59;;;;;;;2.45;1.27;;;;;;;24.29;41.14;97786.34;4991804;28;20241;-66
2021/01/06 09:00:31;;;;;;;6.63;1.67;;;;;;;24.32;41.65;97785.16;4992069;28;20206;-67
2021/01/06 09:03:02;;;;;;;2.80;1.38;;;;;;;24.32;41.16;97788.66;4993395;28;20315;-64
2021/01/06 09:05:45;;;;;;;6.13;1.45;;;;;;;24.28;40.86;97790.06;4992496;28;20552;-67
2021/01/06 09:08:13;;;;;;;3.10;1.25;;;;;;;24.17;41.39;97791.38;4992185;28;20212;-66
2021/01/06 09:10:45;;;;;;;2.45;1.25;;;;;;;24.16;40.86;97792.41;4991405;28;20201;-66
2021/01/06 09:13:16;;;;;;;6.57;1.40;;;;;;;24.15;41.29;97797.91;4993081;28;20293;-65
2021/01/06 09:15:49;;;;;;;10.60;1.50;;;;;;;24.20;41.91;97796.34;4991872;28;20229;-68
2021/01/06 09:18:19;;;;;;;8.95;1.65;;;;;;;24.25;42.12;97795.78;4992292;28;20229;-68
2021/01/06 09:21:00;;;;;;;4.45;1.20;;;;;;;24.20;41.02;97807.00;4992424;28;20625;-69
2021/01/06 09:23:27;;;;;;;3.90;1.33;;;;;;;24.27;41.58;97804.44;4993497;28;20691;-67
2021/01/06 09:25:53;;;;;;;6.38;1.27;;;;;;;24.39;40.31;97808.25;4990241;28;20248;-68
2021/01/06 09:28:20;;;;;;;8.52;1.30;;;;;;;24.39;41.70;97813.59;4989905;28;20375;-68
2021/01/06 09:30:49;;;;;;;10.20;1.75;;;;;;;24.34;41.87;97812.50;4990882;28;20280;-66
2021/01/06 09:33:20;;;;;;;11.68;1.75;;;;;;;24.42;42.50;97819.59;4991558;28;20217;-66
2021/01/06 09:35:47;;;;;;;6.75;1.52;;;;;;;24.41;42.46;97820.59;4992270;28;20316;-67
2021/01/06 09:38:23;;;;;;;7.15;1.45;;;;;;;24.45;42.02;97821.88;4990265;28;20205;-66
2021/01/06 09:40:51;;;;;;;6.45;1.48;;;;;;;24.61;41.41;97812.84;4991700;28;20208;-65
2021/01/06 09:43:23;;;;;;;3.85;1.40;;;;;;;24.78;41.06;97818.75;4990651;28;20209;-64
2021/01/06 09:45:50;;;;;;;7.22;1.63;;;;;;;24.73;40.36;97822.84;4990404;28;20345;-66
2021/01/06 09:48:18;;;;;;;6.25;2.03;;;;;;;24.71;40.05;97819.53;4990221;28;20221;-64
2021/01/06 09:50:48;;;;;;;4.63;1.67;;;;;;;24.73;40.97;97824.66;4990101;28;20676;-66
2021/01/06 09:53:18;;;;;;;7.72;1.77;;;;;;;24.85;40.58;97825.84;4990920;28;20219;-66
2021/01/06 09:55:47;;;;;;;5.57;1.30;;;;;;;24.72;39.83;97821.19;4991237;28;20232;-66
2021/01/06 09:58:23;;;;;;;7.05;1.20;;;;;;;24.42;41.14;97830.28;4991366;28;20205;-68
2021/01/06 10:00:56;;;;;;;6.55;1.20;;;;;;;24.18;40.64;97825.06;4992691;28;20296;-67
2021/01/06 10:03:28;;;;;;;5.32;1.27;;;;;;;24.25;40.85;97814.47;4991879;28;20702;-68
2021/01/06 10:06:15;;;;;;;3.58;1.38;;;;;;;24.19;40.92;97816.03;4991230;28;20232;-66
2021/01/06 10:08:46;;;;;;;5.47;1.40;;;;;;;24.24;40.34;97817.34;4991764;28;20261;-67
2021/01/06 10:11:27;;;;;;;4.60;1.40;;;;;;;24.17;40.40;97815.41;4991839;28;20309;-69
2021/01/06 10:14:11;;;;;;;4.90;1.40;;;;;;;24.27;41.36;97811.63;4992616;28;20259;-69
2021/01/06 10:16:44;;;;;;;5.40;1.60;;;;;;;24.26;40.75;97821.44;4992367;28;20201;-67
2021/01/06 10:19:26;;;;;;;3.53;1.50;;;;;;;24.28;39.64;97821.28;4991858;28;20229;-68
2021/01/06 10:21:58;;;;;;;5.50;1.10;;;;;;;24.33;40.86;97811.69;4992196;28;20201;-66
2021/01/06 10:24:54;;;;;;;8.25;1.98;;;;;;;24.29;40.96;97805.06;4992451;28;20216;-67
2021/01/06 10:27:28;;;;;;;6.47;1.60;;;;;;;24.26;39.36;97805.44;4982709;28;20236;-68
2021/01/06 10:29:56;;;;;;;5.05;1.70;;;;;;;24.25;37.83;97809.13;4991684;28;20307;-67
2021/01/06 10:32:46;;;;;;;3.47;1.50;;;;;;;24.31;37.36;97807.53;4990556;28;20297;-68
2021/01/06 10:35:37;;;;;;;4.30;1.42;;;;;;;24.17;38.62;97817.25;4990728;28;20232;-67
2021/01/06 10:38:21;;;;;;;5.85;1.77;;;;;;;24.10;38.44;97811.81;4991081;28;20209;-67
2021/01/06 10:40:48;;;;;;;4.45;1.48;;;;;;;24.02;39.21;97815.41;4990863;28;20358;-68
2021/01/06 10:43:38;;;;;;;9.98;2.00;;;;;;;24.06;38.99;97809.72;4990441;28;20296;-68
2021/01/06 10:46:49;;;;;;;5.80;1.30;;;;;;;23.87;39.55;97809.25;4991524;28;20205;-69
2021/01/06 10:49:45;;;;;;;7.38;1.73;;;;;;;23.88;40.92;97802.06;4930583;29;20227;-69
2021/01/06 10:52:19;;;;;;;11.43;1.75;;;;;;;23.82;40.28;97798.31;4990248;28;20209;-70
2021/01/06 10:54:56;;;;;;;8.88;1.52;;;;;;;23.83;41.00;97803.47;4991096;28;20224;-70
2021/01/06 10:57:28;;;;;;;12.73;2.00;;;;;;;23.85;40.47;97803.28;4991420;28;20252;-66
2021/01/06 11:00:17;;;;;;;9.93;2.00;;;;;;;23.96;40.32;97810.81;4990883;28;20596;-67
2021/01/06 11:02:58;;;;;;;5.53;1.40;;;;;;;24.15;40.85;97803.25;4989189;28;20664;-66
2021/01/06 11:05:29;;;;;;;8.15;1.92;;;;;;;24.28;40.82;97803.41;4991300;28;20224;-66
2021/01/06 11:08:49;;;;;;;7.28;1.40;;;;;;;24.42;41.14;97793.69;4991271;28;20209;-67
2021/01/06 11:11:40;;;;;;;8.30;1.80;;;;;;;24.45;39.83;97795.16;4961673;28;20688;-67
2021/01/06 11:14:22;;;;;;;4.40;1.20;;;;;;;24.46;39.67;97799.50;4987902;28;20308;-66
2021/01/06 11:16:51;;;;;;;4.15;1.38;;;;;;;24.49;40.70;97788.44;4991455;28;20244;-67
2021/01/06 11:19:43;;;;;;;4.47;1.27;;;;;;;24.50;40.25;97800.78;4990105;28;20309;-67
2021/01/06 11:22:39;;;;;;;4.63;0.90;;;;;;;24.51;39.72;97792.56;4990673;28;20311;-67
2021/01/06 11:25:35;;;;;;;6.22;1.20;;;;;;;24.64;41.15;97794.56;4990586;28;20201;-67
2021/01/06 11:28:41;;;;;;;13.13;1.58;;;;;;;24.59;39.67;97794.31;4992693;28;20244;-69
2021/01/06 11:31:25;;;;;;;8.88;1.33;;;;;;;24.65;41.01;97790.09;4992009;28;20228;-68
2021/01/06 11:33:54;;;;;;;9.80;1.33;;;;;;;24.58;40.86;97787.34;4994090;28;20228;-68
2021/01/06 11:36:34;;;;;;;11.48;2.05;;;;;;;24.62;41.31;97780.59;4994829;28;20359;-69
2021/01/06 11:39:01;;;;;;;6.72;1.80;;;;;;;24.64;41.18;97785.75;4992671;28;20236;-68
2021/01/06 11:42:02;;;;;;;9.07;1.42;;;;;;;24.67;40.79;97778.16;4990841;28;20217;-67
2021/01/06 11:44:32;;;;;;;7.65;1.70;;;;;;;24.71;41.47;97776.78;4976750;28;20298;-67
2021/01/06 11:47:09;;;;;;;7.95;1.75;;;;;;;24.64;40.89;97781.22;4994379;28;20206;-68
2021/01/06 11:49:59;;;;;;;4.55;1.33;;;;;;;24.67;41.25;97774.66;4993742;28;20764;-67
2021/01/06 11:52:42;;;;;;;4.85;1.25;;;;;;;24.68;41.42;97782.50;4994165;28;20297;-66
2021/01/06 11:55:35;;;;;;;4.75;1.10;;;;;;;24.79;40.33;97773.13;4993617;28;20363;-68
2021/01/06 11:58:20;;;;;;;7.10;1.73;;;;;;;24.76;41.18;97768.16;4977556;28;20209;-69
2021/01/06 12:01:01;;;;;;;30.13;2.58;;;;;;;24.74;38.28;97775.56;4993729;28;20209;-69
2021/01/06 12:03:41;;;;;;;14.45;2.17;;;;;;;24.70;39.41;97764.41;4993197;28;20293;-72